sensor_id;sensor_type;location;lat;lon;timestamp;P1;durP1;ratioP1;P2;durP2;ratioP2
20956;SDS011;10637;47.970;7.830;2023-05-07T00:00:29;9.10;;;4.17;;
20956;SDS011;10637;47.970;7.830;2023-05-07T00:05:31;14.33;;;4.77;;
20956;SDS011;10637;47.970;7.830;2023-05-07T00:10:33;8.87;;;4.27;;
20956;SDS011;10637;47.970;7.830;2023-05-07T00:15:35;9.67;;;4.67;;
20956;SDS011;10637;47.970;7.830;2023-05-07T00:20:36;9.10;;;4.57;;
20956;SDS011;10637;47.970;7.830;2023-05-07T00:25:38;10.00;;;4.60;;
20956;SDS011;10637;47.970;7.830;2023-05-07T00:30:40;9.00;;;4.40;;
20956;SDS011;10637;47.970;7.830;2023-05-07T00:35:42;12.33;;;4.70;;
20956;SDS011;10637;47.970;7.830;2023-05-07T00:40:44;11.77;;;4.30;;
20956;SDS011;10637;47.970;7.830;2023-05-07T00:45:46;11.00;;;4.80;;
20956;SDS011;10637;47.970;7.830;2023-05-07T00:50:48;12.30;;;4.80;;
20956;SDS011;10637;47.970;7.830;2023-05-07T00:55:50;13.93;;;4.67;;
20956;SDS011;10637;47.970;7.830;2023-05-07T01:00:52;10.40;;;4.03;;
20956;SDS011;10637;47.970;7.830;2023-05-07T01:05:54;10.53;;;4.30;;
20956;SDS011;10637;47.970;7.830;2023-05-07T01:10:59;11.50;;;4.40;;
20956;SDS011;10637;47.970;7.830;2023-05-07T01:16:02;9.50;;;4.27;;
20956;SDS011;10637;47.970;7.830;2023-05-07T01:21:05;10.83;;;4.67;;
20956;SDS011;10637;47.970;7.830;2023-05-07T01:26:08;10.77;;;4.00;;
20956;SDS011;10637;47.970;7.830;2023-05-07T01:31:10;9.57;;;4.50;;
20956;SDS011;10637;47.970;7.830;2023-05-07T01:36:13;11.30;;;4.10;;
20956;SDS011;10637;47.970;7.830;2023-05-07T01:41:16;10.13;;;4.30;;
20956;SDS011;10637;47.970;7.830;2023-05-07T01:46:18;13.40;;;4.73;;
20956;SDS011;10637;47.970;7.830;2023-05-07T01:51:20;11.50;;;4.37;;
20956;SDS011;10637;47.970;7.830;2023-05-07T01:56:23;12.20;;;4.37;;
20956;SDS011;10637;47.970;7.830;2023-05-07T02:01:26;10.80;;;4.30;;
20956;SDS011;10637;47.970;7.830;2023-05-07T02:06:27;11.63;;;4.27;;
20956;SDS011;10637;47.970;7.830;2023-05-07T02:11:29;10.47;;;4.73;;
20956;SDS011;10637;47.970;7.830;2023-05-07T02:16:31;10.17;;;4.43;;
20956;SDS011;10637;47.970;7.830;2023-05-07T02:21:33;9.60;;;4.50;;
20956;SDS011;10637;47.970;7.830;2023-05-07T02:26:34;9.33;;;4.37;;
20956;SDS011;10637;47.970;7.830;2023-05-07T02:31:36;9.47;;;4.67;;
20956;SDS011;10637;47.970;7.830;2023-05-07T02:36:38;10.67;;;4.70;;
20956;SDS011;10637;47.970;7.830;2023-05-07T02:41:39;9.17;;;4.40;;
20956;SDS011;10637;47.970;7.830;2023-05-07T02:46:41;8.40;;;4.53;;
20956;SDS011;10637;47.970;7.830;2023-05-07T02:51:43;10.17;;;4.60;;
20956;SDS011;10637;47.970;7.830;2023-05-07T02:56:44;10.00;;;4.37;;
20956;SDS011;10637;47.970;7.830;2023-05-07T03:01:46;10.37;;;4.30;;
20956;SDS011;10637;47.970;7.830;2023-05-07T03:06:49;10.70;;;4.83;;
20956;SDS011;10637;47.970;7.830;2023-05-07T03:11:51;9.67;;;4.40;;
20956;SDS011;10637;47.970;7.830;2023-05-07T03:16:53;9.50;;;4.60;;
20956;SDS011;10637;47.970;7.830;2023-05-07T03:21:54;11.53;;;4.70;;
20956;SDS011;10637;47.970;7.830;2023-05-07T03:26:56;11.23;;;5.00;;
20956;SDS011;10637;47.970;7.830;2023-05-07T03:31:58;9.80;;;4.87;;
20956;SDS011;10637;47.970;7.830;2023-05-07T03:37:00;12.53;;;4.80;;
20956;SDS011;10637;47.970;7.830;2023-05-07T03:42:02;10.93;;;4.57;;
20956;SDS011;10637;47.970;7.830;2023-05-07T03:47:04;9.40;;;4.67;;
20956;SDS011;10637;47.970;7.830;2023-05-07T03:52:06;13.50;;;4.80;;
20956;SDS011;10637;47.970;7.830;2023-05-07T03:57:07;10.50;;;4.47;;
20956;SDS011;10637;47.970;7.830;2023-05-07T04:02:09;10.30;;;4.40;;
20956;SDS011;10637;47.970;7.830;2023-05-07T04:07:11;8.70;;;4.23;;
20956;SDS011;10637;47.970;7.830;2023-05-07T04:12:12;9.90;;;4.60;;
20956;SDS011;10637;47.970;7.830;2023-05-07T04:17:14;11.30;;;4.90;;
20956;SDS011;10637;47.970;7.830;2023-05-07T04:22:16;10.07;;;5.13;;
20956;SDS011;10637;47.970;7.830;2023-05-07T04:27:18;11.60;;;4.87;;
20956;SDS011;10637;47.970;7.830;2023-05-07T04:32:19;10.63;;;4.70;;
20956;SDS011;10637;47.970;7.830;2023-05-07T04:37:21;9.23;;;5.00;;
20956;SDS011;10637;47.970;7.830;2023-05-07T04:42:23;8.50;;;4.53;;
20956;SDS011;10637;47.970;7.830;2023-05-07T04:47:25;11.67;;;4.60;;
20956;SDS011;10637;47.970;7.830;2023-05-07T04:52:27;11.73;;;4.90;;
20956;SDS011;10637;47.970;7.830;2023-05-07T04:57:28;12.43;;;4.30;;
20956;SDS011;10637;47.970;7.830;2023-05-07T05:02:30;10.37;;;4.43;;
20956;SDS011;10637;47.970;7.830;2023-05-07T05:07:32;8.47;;;4.73;;
20956;SDS011;10637;47.970;7.830;2023-05-07T05:12:34;10.17;;;3.97;;
20956;SDS011;10637;47.970;7.830;2023-05-07T05:17:35;9.73;;;4.40;;
20956;SDS011;10637;47.970;7.830;2023-05-07T05:22:38;11.37;;;5.00;;
20956;SDS011;10637;47.970;7.830;2023-05-07T05:27:40;8.50;;;4.43;;
20956;SDS011;10637;47.970;7.830;2023-05-07T05:32:41;13.03;;;4.40;;
20956;SDS011;10637;47.970;7.830;2023-05-07T05:37:43;10.50;;;4.50;;
20956;SDS011;10637;47.970;7.830;2023-05-07T05:42:45;9.57;;;4.40;;
20956;SDS011;10637;47.970;7.830;2023-05-07T05:47:47;10.77;;;4.57;;
20956;SDS011;10637;47.970;7.830;2023-05-07T05:52:50;10.33;;;5.23;;
20956;SDS011;10637;47.970;7.830;2023-05-07T05:57:52;10.13;;;4.70;;
20956;SDS011;10637;47.970;7.830;2023-05-07T06:02:54;8.43;;;4.33;;
20956;SDS011;10637;47.970;7.830;2023-05-07T06:07:55;10.20;;;4.60;;
20956;SDS011;10637;47.970;7.830;2023-05-07T06:12:57;10.13;;;5.10;;
20956;SDS011;10637;47.970;7.830;2023-05-07T06:17:59;9.83;;;4.40;;
20956;SDS011;10637;47.970;7.830;2023-05-07T06:23:01;13.10;;;5.00;;
20956;SDS011;10637;47.970;7.830;2023-05-07T06:28:02;10.90;;;4.80;;
20956;SDS011;10637;47.970;7.830;2023-05-07T06:33:04;12.17;;;4.70;;
20956;SDS011;10637;47.970;7.830;2023-05-07T06:38:06;13.07;;;4.80;;
20956;SDS011;10637;47.970;7.830;2023-05-07T06:43:08;12.07;;;5.63;;
20956;SDS011;10637;47.970;7.830;2023-05-07T06:48:09;10.37;;;5.10;;
20956;SDS011;10637;47.970;7.830;2023-05-07T06:53:11;10.67;;;5.03;;
20956;SDS011;10637;47.970;7.830;2023-05-07T06:58:13;11.07;;;4.63;;
20956;SDS011;10637;47.970;7.830;2023-05-07T07:03:15;10.03;;;4.97;;
20956;SDS011;10637;47.970;7.830;2023-05-07T07:08:16;11.30;;;5.07;;
20956;SDS011;10637;47.970;7.830;2023-05-07T07:13:19;11.33;;;4.73;;
20956;SDS011;10637;47.970;7.830;2023-05-07T07:18:21;12.57;;;4.80;;
20956;SDS011;10637;47.970;7.830;2023-05-07T07:23:23;10.70;;;4.80;;
20956;SDS011;10637;47.970;7.830;2023-05-07T07:28:24;10.60;;;4.90;;
20956;SDS011;10637;47.970;7.830;2023-05-07T07:33:26;9.70;;;4.90;;
20956;SDS011;10637;47.970;7.830;2023-05-07T07:38:28;9.83;;;4.60;;
20956;SDS011;10637;47.970;7.830;2023-05-07T07:43:30;10.30;;;4.73;;
20956;SDS011;10637;47.970;7.830;2023-05-07T07:48:32;9.87;;;5.20;;
20956;SDS011;10637;47.970;7.830;2023-05-07T07:53:34;9.63;;;5.00;;
20956;SDS011;10637;47.970;7.830;2023-05-07T07:58:35;13.63;;;5.43;;
20956;SDS011;10637;47.970;7.830;2023-05-07T08:03:38;12.10;;;5.00;;
20956;SDS011;10637;47.970;7.830;2023-05-07T08:08:40;10.87;;;4.90;;
20956;SDS011;10637;47.970;7.830;2023-05-07T08:13:42;10.70;;;5.17;;
20956;SDS011;10637;47.970;7.830;2023-05-07T08:18:44;11.63;;;5.20;;
20956;SDS011;10637;47.970;7.830;2023-05-07T08:23:46;9.73;;;5.10;;
20956;SDS011;10637;47.970;7.830;2023-05-07T08:28:47;11.77;;;4.90;;
20956;SDS011;10637;47.970;7.830;2023-05-07T08:33:49;10.37;;;4.60;;
20956;SDS011;10637;47.970;7.830;2023-05-07T08:38:51;11.00;;;4.93;;
20956;SDS011;10637;47.970;7.830;2023-05-07T08:43:53;11.10;;;5.10;;
20956;SDS011;10637;47.970;7.830;2023-05-07T08:49:00;10.43;;;4.97;;
20956;SDS011;10637;47.970;7.830;2023-05-07T08:54:02;11.30;;;5.07;;
20956;SDS011;10637;47.970;7.830;2023-05-07T08:59:05;11.10;;;4.90;;
20956;SDS011;10637;47.970;7.830;2023-05-07T09:04:06;11.40;;;4.97;;
20956;SDS011;10637;47.970;7.830;2023-05-07T09:09:08;9.87;;;4.87;;
20956;SDS011;10637;47.970;7.830;2023-05-07T09:14:10;10.93;;;5.90;;
20956;SDS011;10637;47.970;7.830;2023-05-07T09:19:12;12.53;;;5.60;;
20956;SDS011;10637;47.970;7.830;2023-05-07T09:24:15;10.70;;;5.67;;
20956;SDS011;10637;47.970;7.830;2023-05-07T09:29:17;9.30;;;4.70;;
20956;SDS011;10637;47.970;7.830;2023-05-07T09:34:19;9.23;;;4.83;;
20956;SDS011;10637;47.970;7.830;2023-05-07T09:39:21;8.93;;;4.43;;
20956;SDS011;10637;47.970;7.830;2023-05-07T09:44:24;10.67;;;4.80;;
20956;SDS011;10637;47.970;7.830;2023-05-07T09:49:28;12.43;;;5.73;;
20956;SDS011;10637;47.970;7.830;2023-05-07T09:54:31;12.33;;;5.80;;
20956;SDS011;10637;47.970;7.830;2023-05-07T09:59:34;13.53;;;6.30;;
20956;SDS011;10637;47.970;7.830;2023-05-07T10:04:39;16.10;;;5.63;;
20956;SDS011;10637;47.970;7.830;2023-05-07T10:09:41;13.73;;;6.10;;
20956;SDS011;10637;47.970;7.830;2023-05-07T10:14:45;11.57;;;6.03;;
20956;SDS011;10637;47.970;7.830;2023-05-07T10:19:49;13.47;;;6.80;;
20956;SDS011;10637;47.970;7.830;2023-05-07T10:24:54;12.17;;;6.70;;
20956;SDS011;10637;47.970;7.830;2023-05-07T10:30:21;13.27;;;7.67;;
20956;SDS011;10637;47.970;7.830;2023-05-07T10:35:45;12.93;;;6.90;;
20956;SDS011;10637;47.970;7.830;2023-05-07T10:40:48;12.73;;;6.93;;
20956;SDS011;10637;47.970;7.830;2023-05-07T10:51:19;11.23;;;6.23;;
20956;SDS011;10637;47.970;7.830;2023-05-07T10:56:23;15.40;;;6.30;;
20956;SDS011;10637;47.970;7.830;2023-05-07T11:12:09;11.83;;;5.43;;
20956;SDS011;10637;47.970;7.830;2023-05-07T11:17:11;9.60;;;5.13;;
20956;SDS011;10637;47.970;7.830;2023-05-07T11:22:35;10.17;;;4.93;;
20956;SDS011;10637;47.970;7.830;2023-05-07T11:27:40;10.93;;;4.80;;
20956;SDS011;10637;47.970;7.830;2023-05-07T11:32:43;10.63;;;4.33;;
20956;SDS011;10637;47.970;7.830;2023-05-07T11:37:48;8.97;;;4.10;;
20956;SDS011;10637;47.970;7.830;2023-05-07T11:42:50;9.87;;;4.37;;
20956;SDS011;10637;47.970;7.830;2023-05-07T11:47:51;11.33;;;4.10;;
20956;SDS011;10637;47.970;7.830;2023-05-07T11:52:53;8.57;;;3.83;;
20956;SDS011;10637;47.970;7.830;2023-05-07T11:57:55;8.63;;;4.10;;
20956;SDS011;10637;47.970;7.830;2023-05-07T12:03:02;9.53;;;4.37;;
20956;SDS011;10637;47.970;7.830;2023-05-07T12:08:05;10.23;;;4.70;;
20956;SDS011;10637;47.970;7.830;2023-05-07T12:13:16;9.83;;;4.73;;
20956;SDS011;10637;47.970;7.830;2023-05-07T12:18:23;10.20;;;4.40;;
20956;SDS011;10637;47.970;7.830;2023-05-07T12:23:26;10.20;;;4.50;;
20956;SDS011;10637;47.970;7.830;2023-05-07T12:28:28;9.47;;;4.10;;
20956;SDS011;10637;47.970;7.830;2023-05-07T12:33:30;11.87;;;4.20;;
20956;SDS011;10637;47.970;7.830;2023-05-07T12:38:34;14.33;;;4.23;;
20956;SDS011;10637;47.970;7.830;2023-05-07T12:43:37;12.27;;;4.73;;
20956;SDS011;10637;47.970;7.830;2023-05-07T12:48:45;8.93;;;4.50;;
20956;SDS011;10637;47.970;7.830;2023-05-07T12:53:47;11.00;;;4.73;;
20956;SDS011;10637;47.970;7.830;2023-05-07T12:58:49;10.77;;;4.40;;
20956;SDS011;10637;47.970;7.830;2023-05-07T13:03:51;9.93;;;4.63;;
20956;SDS011;10637;47.970;7.830;2023-05-07T13:08:53;9.57;;;4.30;;
20956;SDS011;10637;47.970;7.830;2023-05-07T13:13:54;10.43;;;4.63;;
20956;SDS011;10637;47.970;7.830;2023-05-07T13:18:56;12.20;;;5.27;;
20956;SDS011;10637;47.970;7.830;2023-05-07T13:23:58;11.07;;;4.90;;
20956;SDS011;10637;47.970;7.830;2023-05-07T13:29:00;10.20;;;4.50;;
20956;SDS011;10637;47.970;7.830;2023-05-07T13:34:02;9.20;;;4.70;;
20956;SDS011;10637;47.970;7.830;2023-05-07T13:39:04;13.17;;;5.10;;
20956;SDS011;10637;47.970;7.830;2023-05-07T13:44:06;10.03;;;5.03;;
20956;SDS011;10637;47.970;7.830;2023-05-07T13:49:07;11.33;;;5.20;;
20956;SDS011;10637;47.970;7.830;2023-05-07T13:54:12;9.80;;;5.40;;
20956;SDS011;10637;47.970;7.830;2023-05-07T13:59:14;10.03;;;5.00;;
20956;SDS011;10637;47.970;7.830;2023-05-07T14:04:15;10.00;;;5.07;;
20956;SDS011;10637;47.970;7.830;2023-05-07T14:09:17;11.43;;;4.73;;
20956;SDS011;10637;47.970;7.830;2023-05-07T14:14:19;11.40;;;4.73;;
20956;SDS011;10637;47.970;7.830;2023-05-07T14:19:21;9.10;;;4.47;;
20956;SDS011;10637;47.970;7.830;2023-05-07T14:24:23;7.73;;;3.70;;
20956;SDS011;10637;47.970;7.830;2023-05-07T14:29:38;10.57;;;3.80;;
20956;SDS011;10637;47.970;7.830;2023-05-07T14:34:40;10.10;;;4.40;;
20956;SDS011;10637;47.970;7.830;2023-05-07T14:39:42;10.07;;;3.93;;
20956;SDS011;10637;47.970;7.830;2023-05-07T14:44:44;7.97;;;3.50;;
20956;SDS011;10637;47.970;7.830;2023-05-07T14:49:46;9.17;;;3.67;;
20956;SDS011;10637;47.970;7.830;2023-05-07T14:54:48;9.13;;;3.20;;
20956;SDS011;10637;47.970;7.830;2023-05-07T14:59:50;8.20;;;2.80;;
20956;SDS011;10637;47.970;7.830;2023-05-07T15:04:52;6.93;;;2.67;;
20956;SDS011;10637;47.970;7.830;2023-05-07T15:09:54;6.60;;;2.10;;
20956;SDS011;10637;47.970;7.830;2023-05-07T15:14:56;7.27;;;2.30;;
20956;SDS011;10637;47.970;7.830;2023-05-07T15:19:57;6.37;;;2.20;;
20956;SDS011;10637;47.970;7.830;2023-05-07T15:24:59;6.80;;;2.30;;
20956;SDS011;10637;47.970;7.830;2023-05-07T15:30:01;6.47;;;2.20;;
20956;SDS011;10637;47.970;7.830;2023-05-07T15:35:04;7.87;;;2.30;;
20956;SDS011;10637;47.970;7.830;2023-05-07T15:40:06;7.17;;;2.57;;
20956;SDS011;10637;47.970;7.830;2023-05-07T15:45:09;6.47;;;2.30;;
20956;SDS011;10637;47.970;7.830;2023-05-07T15:50:12;7.17;;;2.53;;
20956;SDS011;10637;47.970;7.830;2023-05-07T15:55:14;6.60;;;2.60;;
20956;SDS011;10637;47.970;7.830;2023-05-07T16:00:15;7.53;;;2.70;;
20956;SDS011;10637;47.970;7.830;2023-05-07T16:05:19;8.97;;;3.03;;
20956;SDS011;10637;47.970;7.830;2023-05-07T16:10:20;8.43;;;2.73;;
20956;SDS011;10637;47.970;7.830;2023-05-07T16:15:22;7.20;;;2.53;;
20956;SDS011;10637;47.970;7.830;2023-05-07T16:20:28;7.67;;;2.40;;
20956;SDS011;10637;47.970;7.830;2023-05-07T16:25:30;8.03;;;2.40;;
20956;SDS011;10637;47.970;7.830;2023-05-07T16:30:32;6.60;;;2.60;;
20956;SDS011;10637;47.970;7.830;2023-05-07T16:35:34;6.60;;;2.70;;
20956;SDS011;10637;47.970;7.830;2023-05-07T16:40:36;8.60;;;2.90;;
20956;SDS011;10637;47.970;7.830;2023-05-07T16:45:42;7.13;;;2.90;;
20956;SDS011;10637;47.970;7.830;2023-05-07T16:50:43;9.20;;;2.97;;
20956;SDS011;10637;47.970;7.830;2023-05-07T16:55:45;9.20;;;2.90;;
20956;SDS011;10637;47.970;7.830;2023-05-07T17:00:47;7.43;;;2.80;;
20956;SDS011;10637;47.970;7.830;2023-05-07T17:05:51;6.77;;;2.63;;
20956;SDS011;10637;47.970;7.830;2023-05-07T17:10:53;7.87;;;2.80;;
20956;SDS011;10637;47.970;7.830;2023-05-07T17:15:55;7.37;;;2.50;;
20956;SDS011;10637;47.970;7.830;2023-05-07T17:20:57;6.67;;;2.60;;
20956;SDS011;10637;47.970;7.830;2023-05-07T17:25:59;7.37;;;2.47;;
20956;SDS011;10637;47.970;7.830;2023-05-07T17:31:01;7.03;;;2.30;;
20956;SDS011;10637;47.970;7.830;2023-05-07T17:36:02;5.30;;;1.87;;
20956;SDS011;10637;47.970;7.830;2023-05-07T17:41:04;6.50;;;2.10;;
20956;SDS011;10637;47.970;7.830;2023-05-07T17:46:07;7.60;;;2.37;;
20956;SDS011;10637;47.970;7.830;2023-05-07T17:51:09;5.73;;;2.10;;
20956;SDS011;10637;47.970;7.830;2023-05-07T17:56:11;6.63;;;2.13;;
20956;SDS011;10637;47.970;7.830;2023-05-07T18:01:13;7.17;;;2.30;;
20956;SDS011;10637;47.970;7.830;2023-05-07T18:06:14;6.80;;;2.20;;
20956;SDS011;10637;47.970;7.830;2023-05-07T18:11:19;5.90;;;2.10;;
20956;SDS011;10637;47.970;7.830;2023-05-07T18:16:21;7.73;;;2.03;;
20956;SDS011;10637;47.970;7.830;2023-05-07T18:21:23;7.33;;;2.33;;
20956;SDS011;10637;47.970;7.830;2023-05-07T18:26:25;8.00;;;2.70;;
20956;SDS011;10637;47.970;7.830;2023-05-07T18:31:27;12.97;;;3.63;;
20956;SDS011;10637;47.970;7.830;2023-05-07T18:36:29;8.23;;;3.13;;
20956;SDS011;10637;47.970;7.830;2023-05-07T18:41:31;8.70;;;3.30;;
20956;SDS011;10637;47.970;7.830;2023-05-07T18:46:32;9.80;;;3.20;;
20956;SDS011;10637;47.970;7.830;2023-05-07T18:51:34;8.47;;;3.10;;
20956;SDS011;10637;47.970;7.830;2023-05-07T18:56:36;8.40;;;3.60;;
20956;SDS011;10637;47.970;7.830;2023-05-07T19:01:38;7.60;;;3.10;;
20956;SDS011;10637;47.970;7.830;2023-05-07T19:06:40;8.37;;;3.13;;
20956;SDS011;10637;47.970;7.830;2023-05-07T19:11:41;7.80;;;3.00;;
20956;SDS011;10637;47.970;7.830;2023-05-07T19:16:43;8.60;;;3.33;;
20956;SDS011;10637;47.970;7.830;2023-05-07T19:21:45;8.73;;;3.30;;
20956;SDS011;10637;47.970;7.830;2023-05-07T19:26:46;8.73;;;3.07;;
20956;SDS011;10637;47.970;7.830;2023-05-07T19:31:48;6.47;;;2.87;;
20956;SDS011;10637;47.970;7.830;2023-05-07T19:36:50;10.20;;;3.70;;
20956;SDS011;10637;47.970;7.830;2023-05-07T19:41:51;8.67;;;3.33;;
20956;SDS011;10637;47.970;7.830;2023-05-07T19:46:53;9.47;;;3.03;;
20956;SDS011;10637;47.970;7.830;2023-05-07T19:51:55;7.57;;;3.13;;
20956;SDS011;10637;47.970;7.830;2023-05-07T19:56:57;10.60;;;3.73;;
20956;SDS011;10637;47.970;7.830;2023-05-07T20:01:59;9.07;;;3.50;;
20956;SDS011;10637;47.970;7.830;2023-05-07T20:07:00;11.17;;;3.43;;
20956;SDS011;10637;47.970;7.830;2023-05-07T20:12:02;9.70;;;3.30;;
20956;SDS011;10637;47.970;7.830;2023-05-07T20:17:04;7.27;;;2.57;;
20956;SDS011;10637;47.970;7.830;2023-05-07T20:22:06;8.57;;;2.73;;
20956;SDS011;10637;47.970;7.830;2023-05-07T20:27:07;7.63;;;2.40;;
20956;SDS011;10637;47.970;7.830;2023-05-07T20:32:09;7.80;;;2.70;;
20956;SDS011;10637;47.970;7.830;2023-05-07T20:37:12;6.10;;;2.50;;
20956;SDS011;10637;47.970;7.830;2023-05-07T20:42:15;7.90;;;2.60;;
20956;SDS011;10637;47.970;7.830;2023-05-07T20:47:17;6.40;;;2.50;;
20956;SDS011;10637;47.970;7.830;2023-05-07T20:52:19;7.70;;;2.77;;
20956;SDS011;10637;47.970;7.830;2023-05-07T20:57:21;7.73;;;2.70;;
20956;SDS011;10637;47.970;7.830;2023-05-07T21:02:22;6.60;;;2.83;;
20956;SDS011;10637;47.970;7.830;2023-05-07T21:07:24;6.67;;;2.47;;
20956;SDS011;10637;47.970;7.830;2023-05-07T21:12:26;6.30;;;2.70;;
20956;SDS011;10637;47.970;7.830;2023-05-07T21:17:27;8.77;;;2.70;;
20956;SDS011;10637;47.970;7.830;2023-05-07T21:22:31;9.90;;;2.70;;
20956;SDS011;10637;47.970;7.830;2023-05-07T21:27:33;7.13;;;2.40;;
20956;SDS011;10637;47.970;7.830;2023-05-07T21:32:35;6.00;;;2.43;;
20956;SDS011;10637;47.970;7.830;2023-05-07T21:37:37;6.37;;;2.40;;
20956;SDS011;10637;47.970;7.830;2023-05-07T21:42:39;7.30;;;2.40;;
20956;SDS011;10637;47.970;7.830;2023-05-07T21:47:40;6.90;;;2.27;;
20956;SDS011;10637;47.970;7.830;2023-05-07T21:52:42;6.93;;;2.30;;
20956;SDS011;10637;47.970;7.830;2023-05-07T21:57:44;9.90;;;2.70;;
20956;SDS011;10637;47.970;7.830;2023-05-07T22:03:04;6.87;;;2.37;;
20956;SDS011;10637;47.970;7.830;2023-05-07T22:08:06;6.77;;;2.63;;
20956;SDS011;10637;47.970;7.830;2023-05-07T22:13:08;7.13;;;2.57;;
20956;SDS011;10637;47.970;7.830;2023-05-07T22:18:10;6.67;;;2.50;;
20956;SDS011;10637;47.970;7.830;2023-05-07T22:23:12;6.93;;;2.67;;
20956;SDS011;10637;47.970;7.830;2023-05-07T22:28:14;8.17;;;2.60;;
20956;SDS011;10637;47.970;7.830;2023-05-07T22:33:16;7.10;;;2.60;;
20956;SDS011;10637;47.970;7.830;2023-05-07T22:38:17;11.43;;;2.83;;
20956;SDS011;10637;47.970;7.830;2023-05-07T22:43:19;8.57;;;2.70;;
20956;SDS011;10637;47.970;7.830;2023-05-07T22:48:21;9.23;;;2.80;;
20956;SDS011;10637;47.970;7.830;2023-05-07T22:53:23;7.73;;;2.80;;
20956;SDS011;10637;47.970;7.830;2023-05-07T22:58:25;7.97;;;2.57;;
20956;SDS011;10637;47.970;7.830;2023-05-07T23:03:27;9.37;;;2.83;;
20956;SDS011;10637;47.970;7.830;2023-05-07T23:08:28;10.33;;;3.03;;
20956;SDS011;10637;47.970;7.830;2023-05-07T23:13:30;8.53;;;3.20;;
20956;SDS011;10637;47.970;7.830;2023-05-07T23:18:32;9.13;;;2.70;;
20956;SDS011;10637;47.970;7.830;2023-05-07T23:23:34;8.27;;;2.73;;
20956;SDS011;10637;47.970;7.830;2023-05-07T23:28:35;7.00;;;3.07;;
20956;SDS011;10637;47.970;7.830;2023-05-07T23:33:37;7.57;;;2.73;;
20956;SDS011;10637;47.970;7.830;2023-05-07T23:38:39;9.33;;;2.73;;
20956;SDS011;10637;47.970;7.830;2023-05-07T23:43:41;9.77;;;2.87;;
20956;SDS011;10637;47.970;7.830;2023-05-07T23:48:42;9.60;;;3.10;;
20956;SDS011;10637;47.970;7.830;2023-05-07T23:53:44;7.00;;;3.00;;
20956;SDS011;10637;47.970;7.830;2023-05-07T23:58:46;7.93;;;2.70;;
